METAR AND TAF INFORMATION
METAR FOR LOWI
ADDS - METARS form results

(1802 UTC 28 February 2021)
Data provider http://aviationweather.gov/metar/data/
 
METAR text: LOWI 281750Z 14003KT 090V170 CAVOK 06/M02 Q1030 NOSIG
Conditions at: LOWI (INNSBRUCK AIRPOR, AT) observed 1750 UTC 28 February 2021
Temperature: 6.0°C (43°F)
Dewpoint: -2.0°C (28°F) [RH = 56%]
Pressure (altimeter): 30.41 inches Hg (1030.0 mb)
Winds: from the SE (140 degrees) at 3 MPH (3 knots; 1.5 m/s)
Visibility: 6 or more miles (10+ km)
Ceiling: ceiling and visibility are OK
Clouds: unknown
Weather: no significant weather observed at this time

METAR text: LOWI 281720Z 08008KT CAVOK 08/M01 Q1029 NOSIG
Conditions at: LOWI (INNSBRUCK AIRPOR, AT) observed 1720 UTC 28 February 2021
Temperature: 8.0°C (46°F)
Dewpoint: -1.0°C (30°F) [RH = 53%]
Pressure (altimeter): 30.38 inches Hg (1029.0 mb)
Winds: from the E (80 degrees) at 9 MPH (8 knots; 4.1 m/s)
Visibility: 6 or more miles (10+ km)
Ceiling: ceiling and visibility are OK
Clouds: unknown
Weather: no significant weather observed at this time

Forecast for: LOWI (INNSBRUCK AIRPOR, AT)
Text: TAF LOWI 281715Z 2818/0118 08005KT CAVOK TX14/0115Z TNM03/0106Z
Forecast period: 1800 UTC 28 February 2021 to 1800 UTC 01 March 2021
Forecast type: FROM: standard forecast or significant change
Winds: from the E (80 degrees) at 6 MPH (5 knots; 2.6 m/s)
Visibility: 6 or more miles (10+ km)
Ceiling: unknown
Clouds: missing
Weather: no significant weather forecast for this period

 AIRPORT MAP

 RUNWAY INFORMATION
Runway 08 Runway length 6562 ft Runway width 148 ft
Runway elevation 1906 ft Runway displaced threshold 339 ft Runway heading 81
Runway 26 Runway length 6562 ft Runway width 148 ft
Runway elevation 1893 ft Runway displaced threshold 198 ft Runway heading 261

 AIRPORT FREQUENCIES
Type APP Name APP Frequency 119.275 MHZ
Type ATIS Name ATIS Frequency 126.025 MHZ
Type GND Crew Name Frequency 121.8 MHZ
Type GND Crew Name Frequency 121.9 MHZ
Type TWR Name TWR Frequency 120.1 MHZ

 AIRPORT NEAR NAVIGATION AIDS
Type NDB Name Innsbruck Frequency 420 KHZ
Type NDB Name Kuhtai Frequency 413 KHZ



Powered by Virtual Airlines Manager [v2.6.2]



This site has no connection with the actual Aegean Airlines®.
The site was designed exclusively for use in conjunction with Microsoft Flight Simulator™, Prepar3D™ and X-plane™.
Any References to Microsoft, Aegean, Airbus, Boeing, etc. are legally owned by the manufacturers and their owners.
Our views and activities are quite different from those of the real Aegean Airlines®. Everything is virtual. Resources and information cannot be used on real flights but only for virtual ones.

Everything was created for entertainment only